sensor_id;sensor_type;location;lat;lon;timestamp;P1;durP1;ratioP1;P2;durP2;ratioP2
70312;SDS011;57723;51.698;5.344;2023-02-23T00:01:52;4.50;;;1.60;;
70312;SDS011;57723;51.698;5.344;2023-02-23T00:04:17;4.20;;;1.50;;
70312;SDS011;57723;51.698;5.344;2023-02-23T00:06:44;3.65;;;1.40;;
70312;SDS011;57723;51.698;5.344;2023-02-23T00:09:09;3.23;;;1.27;;
70312;SDS011;57723;51.698;5.344;2023-02-23T00:11:46;3.67;;;1.63;;
70312;SDS011;57723;51.698;5.344;2023-02-23T00:14:11;3.37;;;1.60;;
70312;SDS011;57723;51.698;5.344;2023-02-23T00:16:37;3.87;;;1.50;;
70312;SDS011;57723;51.698;5.344;2023-02-23T00:19:02;3.50;;;1.33;;
70312;SDS011;57723;51.698;5.344;2023-02-23T00:21:32;2.85;;;1.30;;
70312;SDS011;57723;51.698;5.344;2023-02-23T00:24:09;3.63;;;1.48;;
70312;SDS011;57723;51.698;5.344;2023-02-23T00:26:35;3.00;;;1.60;;
70312;SDS011;57723;51.698;5.344;2023-02-23T00:29:02;4.07;;;1.67;;
70312;SDS011;57723;51.698;5.344;2023-02-23T00:31:27;4.00;;;1.60;;
70312;SDS011;57723;51.698;5.344;2023-02-23T00:33:56;2.97;;;1.55;;
70312;SDS011;57723;51.698;5.344;2023-02-23T00:36:23;3.43;;;1.37;;
70312;SDS011;57723;51.698;5.344;2023-02-23T00:38:51;4.38;;;1.33;;
70312;SDS011;57723;51.698;5.344;2023-02-23T00:41:17;3.22;;;1.40;;
70312;SDS011;57723;51.698;5.344;2023-02-23T00:43:48;5.15;;;1.50;;
70312;SDS011;57723;51.698;5.344;2023-02-23T00:46:14;3.70;;;1.40;;
70312;SDS011;57723;51.698;5.344;2023-02-23T00:48:40;3.30;;;1.67;;
70312;SDS011;57723;51.698;5.344;2023-02-23T00:51:06;5.77;;;1.50;;
70312;SDS011;57723;51.698;5.344;2023-02-23T00:53:31;2.97;;;1.30;;
70312;SDS011;57723;51.698;5.344;2023-02-23T00:55:59;2.92;;;1.38;;
70312;SDS011;57723;51.698;5.344;2023-02-23T00:58:25;2.70;;;1.40;;
70312;SDS011;57723;51.698;5.344;2023-02-23T01:00:51;2.97;;;1.60;;
70312;SDS011;57723;51.698;5.344;2023-02-23T01:03:16;3.23;;;1.50;;
70312;SDS011;57723;51.698;5.344;2023-02-23T01:05:42;4.15;;;1.67;;
70312;SDS011;57723;51.698;5.344;2023-02-23T01:08:08;2.50;;;1.30;;
70312;SDS011;57723;51.698;5.344;2023-02-23T01:10:38;3.38;;;1.60;;
70312;SDS011;57723;51.698;5.344;2023-02-23T01:13:07;3.55;;;1.52;;
70312;SDS011;57723;51.698;5.344;2023-02-23T01:15:32;4.20;;;1.67;;
70312;SDS011;57723;51.698;5.344;2023-02-23T01:17:58;4.55;;;1.70;;
70312;SDS011;57723;51.698;5.344;2023-02-23T01:20:23;3.70;;;1.50;;
70312;SDS011;57723;51.698;5.344;2023-02-23T01:22:50;3.15;;;1.63;;
70312;SDS011;57723;51.698;5.344;2023-02-23T01:25:16;4.33;;;1.80;;
70312;SDS011;57723;51.698;5.344;2023-02-23T01:27:42;4.00;;;1.50;;
70312;SDS011;57723;51.698;5.344;2023-02-23T01:30:08;2.92;;;1.42;;
70312;SDS011;57723;51.698;5.344;2023-02-23T01:32:35;2.60;;;1.30;;
70312;SDS011;57723;51.698;5.344;2023-02-23T01:35:04;2.73;;;1.30;;
70312;SDS011;57723;51.698;5.344;2023-02-23T01:37:32;3.45;;;1.50;;
70312;SDS011;57723;51.698;5.344;2023-02-23T01:39:59;2.63;;;1.40;;
70312;SDS011;57723;51.698;5.344;2023-02-23T01:42:24;3.63;;;1.40;;
70312;SDS011;57723;51.698;5.344;2023-02-23T01:47:34;3.75;;;1.63;;
70312;SDS011;57723;51.698;5.344;2023-02-23T01:49:59;5.07;;;1.47;;
70312;SDS011;57723;51.698;5.344;2023-02-23T01:52:26;4.25;;;1.35;;
70312;SDS011;57723;51.698;5.344;2023-02-23T01:54:51;3.30;;;1.60;;
70312;SDS011;57723;51.698;5.344;2023-02-23T01:57:18;3.30;;;1.55;;
70312;SDS011;57723;51.698;5.344;2023-02-23T01:59:45;3.70;;;1.60;;
70312;SDS011;57723;51.698;5.344;2023-02-23T02:02:11;4.45;;;1.73;;
70312;SDS011;57723;51.698;5.344;2023-02-23T02:04:38;2.65;;;1.40;;
70312;SDS011;57723;51.698;5.344;2023-02-23T02:07:11;3.23;;;1.43;;
70312;SDS011;57723;51.698;5.344;2023-02-23T02:09:38;4.00;;;1.70;;
70312;SDS011;57723;51.698;5.344;2023-02-23T02:12:04;2.97;;;1.60;;
70312;SDS011;57723;51.698;5.344;2023-02-23T02:14:32;3.55;;;1.60;;
70312;SDS011;57723;51.698;5.344;2023-02-23T02:17:17;3.85;;;1.58;;
70312;SDS011;57723;51.698;5.344;2023-02-23T02:22:43;4.05;;;1.50;;
70312;SDS011;57723;51.698;5.344;2023-02-23T02:43:00;4.57;;;1.60;;
70312;SDS011;57723;51.698;5.344;2023-02-23T02:45:42;2.63;;;1.48;;
70312;SDS011;57723;51.698;5.344;2023-02-23T02:48:11;4.20;;;1.50;;
70312;SDS011;57723;51.698;5.344;2023-02-23T02:50:51;3.40;;;1.63;;
70312;SDS011;57723;51.698;5.344;2023-02-23T02:53:20;4.43;;;1.70;;
70312;SDS011;57723;51.698;5.344;2023-02-23T02:55:50;3.05;;;1.35;;
70312;SDS011;57723;51.698;5.344;2023-02-23T02:58:20;2.60;;;1.35;;
70312;SDS011;57723;51.698;5.344;2023-02-23T03:00:46;3.13;;;1.57;;
70312;SDS011;57723;51.698;5.344;2023-02-23T03:03:38;3.55;;;1.67;;
70312;SDS011;57723;51.698;5.344;2023-02-23T03:06:41;3.38;;;1.55;;
70312;SDS011;57723;51.698;5.344;2023-02-23T03:15:32;3.67;;;1.50;;
70312;SDS011;57723;51.698;5.344;2023-02-23T03:21:28;3.13;;;1.42;;
70312;SDS011;57723;51.698;5.344;2023-02-23T03:24:30;2.75;;;1.20;;
70312;SDS011;57723;51.698;5.344;2023-02-23T03:33:07;2.75;;;1.45;;
70312;SDS011;57723;51.698;5.344;2023-02-23T03:38:41;3.17;;;1.40;;
70312;SDS011;57723;51.698;5.344;2023-02-23T03:41:35;3.25;;;1.48;;
70312;SDS011;57723;51.698;5.344;2023-02-23T03:44:21;2.92;;;1.35;;
70312;SDS011;57723;51.698;5.344;2023-02-23T03:47:07;3.80;;;1.73;;
70312;SDS011;57723;51.698;5.344;2023-02-23T03:49:51;4.00;;;1.50;;
70312;SDS011;57723;51.698;5.344;2023-02-23T03:52:47;3.15;;;1.50;;
70312;SDS011;57723;51.698;5.344;2023-02-23T03:55:33;3.28;;;1.50;;
70312;SDS011;57723;51.698;5.344;2023-02-23T03:58:22;2.88;;;1.50;;
70312;SDS011;57723;51.698;5.344;2023-02-23T04:01:07;4.05;;;1.50;;
70312;SDS011;57723;51.698;5.344;2023-02-23T04:03:51;3.30;;;1.50;;
70312;SDS011;57723;51.698;5.344;2023-02-23T04:06:37;2.85;;;1.50;;
70312;SDS011;57723;51.698;5.344;2023-02-23T04:09:22;3.67;;;1.58;;
70312;SDS011;57723;51.698;5.344;2023-02-23T04:12:14;3.97;;;1.25;;
70312;SDS011;57723;51.698;5.344;2023-02-23T04:15:02;3.35;;;1.35;;
70312;SDS011;57723;51.698;5.344;2023-02-23T04:17:28;3.47;;;1.50;;
70312;SDS011;57723;51.698;5.344;2023-02-23T04:19:54;5.47;;;1.80;;
70312;SDS011;57723;51.698;5.344;2023-02-23T04:22:23;2.85;;;1.42;;
70312;SDS011;57723;51.698;5.344;2023-02-23T04:24:49;3.60;;;1.67;;
70312;SDS011;57723;51.698;5.344;2023-02-23T04:27:15;3.70;;;1.37;;
70312;SDS011;57723;51.698;5.344;2023-02-23T04:29:46;2.80;;;1.20;;
70312;SDS011;57723;51.698;5.344;2023-02-23T04:32:12;2.95;;;1.50;;
70312;SDS011;57723;51.698;5.344;2023-02-23T04:34:38;2.85;;;1.48;;
70312;SDS011;57723;51.698;5.344;2023-02-23T04:37:04;4.47;;;1.40;;
70312;SDS011;57723;51.698;5.344;2023-02-23T04:39:29;3.40;;;1.70;;
70312;SDS011;57723;51.698;5.344;2023-02-23T04:41:54;3.20;;;1.47;;
70312;SDS011;57723;51.698;5.344;2023-02-23T04:44:20;3.30;;;1.70;;
70312;SDS011;57723;51.698;5.344;2023-02-23T04:46:45;3.88;;;1.40;;
70312;SDS011;57723;51.698;5.344;2023-02-23T04:49:14;4.47;;;1.63;;
70312;SDS011;57723;51.698;5.344;2023-02-23T04:51:40;2.80;;;1.33;;
70312;SDS011;57723;51.698;5.344;2023-02-23T04:54:05;3.37;;;1.53;;
70312;SDS011;57723;51.698;5.344;2023-02-23T04:56:30;3.17;;;1.40;;
70312;SDS011;57723;51.698;5.344;2023-02-23T04:58:58;6.30;;;1.70;;
70312;SDS011;57723;51.698;5.344;2023-02-23T05:01:24;3.25;;;1.50;;
70312;SDS011;57723;51.698;5.344;2023-02-23T05:03:50;5.38;;;1.95;;
70312;SDS011;57723;51.698;5.344;2023-02-23T05:06:16;4.97;;;1.60;;
70312;SDS011;57723;51.698;5.344;2023-02-23T05:08:42;4.05;;;1.70;;
70312;SDS011;57723;51.698;5.344;2023-02-23T05:11:07;3.38;;;1.73;;
70312;SDS011;57723;51.698;5.344;2023-02-23T05:13:33;3.67;;;1.80;;
70312;SDS011;57723;51.698;5.344;2023-02-23T05:15:58;8.20;;;1.60;;
70312;SDS011;57723;51.698;5.344;2023-02-23T05:18:27;5.68;;;2.53;;
70312;SDS011;57723;51.698;5.344;2023-02-23T05:20:52;3.92;;;2.03;;
70312;SDS011;57723;51.698;5.344;2023-02-23T05:23:18;4.23;;;1.90;;
70312;SDS011;57723;51.698;5.344;2023-02-23T05:25:43;3.93;;;1.90;;
70312;SDS011;57723;51.698;5.344;2023-02-23T05:28:08;3.77;;;1.80;;
70312;SDS011;57723;51.698;5.344;2023-02-23T05:30:35;4.07;;;2.17;;
70312;SDS011;57723;51.698;5.344;2023-02-23T05:33:01;3.88;;;1.75;;
70312;SDS011;57723;51.698;5.344;2023-02-23T05:35:26;4.50;;;1.90;;
70312;SDS011;57723;51.698;5.344;2023-02-23T05:37:51;4.73;;;1.97;;
70312;SDS011;57723;51.698;5.344;2023-02-23T05:40:16;4.93;;;2.07;;
70312;SDS011;57723;51.698;5.344;2023-02-23T05:42:42;5.40;;;2.10;;
70312;SDS011;57723;51.698;5.344;2023-02-23T05:45:07;4.23;;;1.90;;
70312;SDS011;57723;51.698;5.344;2023-02-23T05:47:33;3.78;;;1.85;;
70312;SDS011;57723;51.698;5.344;2023-02-23T05:50:02;4.40;;;2.10;;
70312;SDS011;57723;51.698;5.344;2023-02-23T05:52:28;4.57;;;2.00;;
70312;SDS011;57723;51.698;5.344;2023-02-23T05:54:53;2.87;;;1.67;;
70312;SDS011;57723;51.698;5.344;2023-02-23T05:57:19;4.50;;;2.00;;
70312;SDS011;57723;51.698;5.344;2023-02-23T05:59:44;4.07;;;1.60;;
70312;SDS011;57723;51.698;5.344;2023-02-23T06:02:10;4.30;;;2.00;;
70312;SDS011;57723;51.698;5.344;2023-02-23T06:04:35;3.93;;;2.00;;
70312;SDS011;57723;51.698;5.344;2023-02-23T06:07:00;3.70;;;1.80;;
70312;SDS011;57723;51.698;5.344;2023-02-23T06:09:28;3.90;;;1.90;;
70312;SDS011;57723;51.698;5.344;2023-02-23T06:11:56;4.43;;;1.70;;
70312;SDS011;57723;51.698;5.344;2023-02-23T06:14:23;3.53;;;1.90;;
70312;SDS011;57723;51.698;5.344;2023-02-23T06:16:48;4.00;;;1.60;;
70312;SDS011;57723;51.698;5.344;2023-02-23T06:19:15;4.90;;;2.20;;
70312;SDS011;57723;51.698;5.344;2023-02-23T06:21:40;5.90;;;1.90;;
70312;SDS011;57723;51.698;5.344;2023-02-23T06:24:06;3.53;;;2.00;;
70312;SDS011;57723;51.698;5.344;2023-02-23T06:26:33;4.90;;;1.85;;
70312;SDS011;57723;51.698;5.344;2023-02-23T06:28:59;4.50;;;2.30;;
70312;SDS011;57723;51.698;5.344;2023-02-23T06:31:25;3.08;;;1.70;;
70312;SDS011;57723;51.698;5.344;2023-02-23T06:33:50;4.17;;;2.20;;
70312;SDS011;57723;51.698;5.344;2023-02-23T06:36:15;4.37;;;2.30;;
70312;SDS011;57723;51.698;5.344;2023-02-23T06:38:41;5.93;;;1.97;;
70312;SDS011;57723;51.698;5.344;2023-02-23T06:41:07;5.33;;;2.00;;
70312;SDS011;57723;51.698;5.344;2023-02-23T06:43:33;5.32;;;2.25;;
70312;SDS011;57723;51.698;5.344;2023-02-23T06:46:07;4.65;;;2.10;;
70312;SDS011;57723;51.698;5.344;2023-02-23T06:48:32;6.47;;;2.45;;
70312;SDS011;57723;51.698;5.344;2023-02-23T06:50:59;6.15;;;2.50;;
70312;SDS011;57723;51.698;5.344;2023-02-23T06:53:28;5.53;;;2.17;;
70312;SDS011;57723;51.698;5.344;2023-02-23T06:55:55;6.82;;;2.03;;
70312;SDS011;57723;51.698;5.344;2023-02-23T06:58:20;7.07;;;2.33;;
70312;SDS011;57723;51.698;5.344;2023-02-23T07:00:45;14.75;;;2.17;;
70312;SDS011;57723;51.698;5.344;2023-02-23T07:03:11;8.37;;;2.20;;
70312;SDS011;57723;51.698;5.344;2023-02-23T07:05:36;8.43;;;2.00;;
70312;SDS011;57723;51.698;5.344;2023-02-23T07:08:10;6.78;;;2.10;;
70312;SDS011;57723;51.698;5.344;2023-02-23T07:10:43;5.63;;;1.90;;
70312;SDS011;57723;51.698;5.344;2023-02-23T07:13:09;5.47;;;1.98;;
70312;SDS011;57723;51.698;5.344;2023-02-23T07:15:37;4.63;;;1.70;;
70312;SDS011;57723;51.698;5.344;2023-02-23T07:18:05;9.88;;;2.08;;
70312;SDS011;57723;51.698;5.344;2023-02-23T07:20:34;7.47;;;2.35;;
70312;SDS011;57723;51.698;5.344;2023-02-23T07:22:59;4.03;;;1.63;;
70312;SDS011;57723;51.698;5.344;2023-02-23T07:25:25;5.37;;;2.03;;
70312;SDS011;57723;51.698;5.344;2023-02-23T07:27:54;7.20;;;1.90;;
70312;SDS011;57723;51.698;5.344;2023-02-23T07:30:27;4.83;;;1.67;;
70312;SDS011;57723;51.698;5.344;2023-02-23T07:32:53;4.28;;;1.60;;
70312;SDS011;57723;51.698;5.344;2023-02-23T07:35:18;3.03;;;1.50;;
70312;SDS011;57723;51.698;5.344;2023-02-23T07:37:44;4.68;;;1.42;;
70312;SDS011;57723;51.698;5.344;2023-02-23T07:40:09;3.50;;;1.40;;
70312;SDS011;57723;51.698;5.344;2023-02-23T07:42:35;3.77;;;1.63;;
70312;SDS011;57723;51.698;5.344;2023-02-23T07:45:00;6.30;;;1.63;;
70312;SDS011;57723;51.698;5.344;2023-02-23T07:47:25;5.60;;;1.30;;
70312;SDS011;57723;51.698;5.344;2023-02-23T07:49:58;6.45;;;1.40;;
70312;SDS011;57723;51.698;5.344;2023-02-23T07:52:24;3.22;;;1.60;;
70312;SDS011;57723;51.698;5.344;2023-02-23T07:54:49;3.77;;;1.30;;
70312;SDS011;57723;51.698;5.344;2023-02-23T07:57:15;3.40;;;1.50;;
70312;SDS011;57723;51.698;5.344;2023-02-23T07:59:43;4.93;;;1.20;;
70312;SDS011;57723;51.698;5.344;2023-02-23T08:02:11;3.13;;;1.30;;
70312;SDS011;57723;51.698;5.344;2023-02-23T08:04:37;2.58;;;1.15;;
70312;SDS011;57723;51.698;5.344;2023-02-23T08:07:02;2.60;;;1.37;;
70312;SDS011;57723;51.698;5.344;2023-02-23T08:09:28;3.67;;;1.20;;
70312;SDS011;57723;51.698;5.344;2023-02-23T08:11:56;2.80;;;1.65;;
70312;SDS011;57723;51.698;5.344;2023-02-23T08:14:22;6.37;;;1.33;;
70312;SDS011;57723;51.698;5.344;2023-02-23T08:16:47;2.45;;;1.15;;
70312;SDS011;57723;51.698;5.344;2023-02-23T08:19:13;2.22;;;1.10;;
70312;SDS011;57723;51.698;5.344;2023-02-23T08:21:38;3.20;;;1.20;;
70312;SDS011;57723;51.698;5.344;2023-02-23T08:24:04;2.07;;;1.00;;
70312;SDS011;57723;51.698;5.344;2023-02-23T08:26:30;2.63;;;1.20;;
70312;SDS011;57723;51.698;5.344;2023-02-23T08:28:55;2.43;;;1.07;;
70312;SDS011;57723;51.698;5.344;2023-02-23T08:31:20;2.03;;;0.90;;
70312;SDS011;57723;51.698;5.344;2023-02-23T08:33:47;2.20;;;1.15;;
70312;SDS011;57723;51.698;5.344;2023-02-23T08:36:15;2.40;;;0.90;;
70312;SDS011;57723;51.698;5.344;2023-02-23T08:38:41;3.55;;;1.33;;
70312;SDS011;57723;51.698;5.344;2023-02-23T08:41:06;2.37;;;1.17;;
70312;SDS011;57723;51.698;5.344;2023-02-23T08:43:31;2.70;;;1.13;;
70312;SDS011;57723;51.698;5.344;2023-02-23T08:45:57;3.13;;;1.00;;
70312;SDS011;57723;51.698;5.344;2023-02-23T08:48:22;2.17;;;1.00;;
70312;SDS011;57723;51.698;5.344;2023-02-23T08:50:48;2.07;;;1.20;;
70312;SDS011;57723;51.698;5.344;2023-02-23T08:53:20;2.95;;;1.10;;
70312;SDS011;57723;51.698;5.344;2023-02-23T08:55:46;2.17;;;0.90;;
70312;SDS011;57723;51.698;5.344;2023-02-23T08:58:12;1.80;;;0.90;;
70312;SDS011;57723;51.698;5.344;2023-02-23T09:00:38;2.33;;;1.20;;
70312;SDS011;57723;51.698;5.344;2023-02-23T09:03:08;2.23;;;0.93;;
70312;SDS011;57723;51.698;5.344;2023-02-23T09:05:35;2.40;;;1.20;;
70312;SDS011;57723;51.698;5.344;2023-02-23T09:08:01;1.88;;;1.00;;
70312;SDS011;57723;51.698;5.344;2023-02-23T09:10:26;2.60;;;1.00;;
70312;SDS011;57723;51.698;5.344;2023-02-23T09:12:53;2.40;;;1.02;;
70312;SDS011;57723;51.698;5.344;2023-02-23T09:15:20;2.50;;;1.00;;
70312;SDS011;57723;51.698;5.344;2023-02-23T09:17:46;1.60;;;0.80;;
70312;SDS011;57723;51.698;5.344;2023-02-23T09:20:12;1.95;;;1.02;;
70312;SDS011;57723;51.698;5.344;2023-02-23T09:22:43;3.60;;;1.00;;
70312;SDS011;57723;51.698;5.344;2023-02-23T09:25:09;2.10;;;1.00;;
70312;SDS011;57723;51.698;5.344;2023-02-23T09:27:39;1.98;;;0.85;;
70312;SDS011;57723;51.698;5.344;2023-02-23T09:30:05;2.28;;;1.00;;
70312;SDS011;57723;51.698;5.344;2023-02-23T09:32:31;4.00;;;1.10;;
70312;SDS011;57723;51.698;5.344;2023-02-23T09:34:57;2.10;;;1.00;;
70312;SDS011;57723;51.698;5.344;2023-02-23T09:37:22;1.67;;;0.80;;
70312;SDS011;57723;51.698;5.344;2023-02-23T09:39:49;2.33;;;1.13;;
70312;SDS011;57723;51.698;5.344;2023-02-23T09:42:40;2.08;;;0.82;;
70312;SDS011;57723;51.698;5.344;2023-02-23T09:47:42;2.78;;;1.00;;
70312;SDS011;57723;51.698;5.344;2023-02-23T09:50:20;1.98;;;1.10;;
70312;SDS011;57723;51.698;5.344;2023-02-23T09:55:30;1.77;;;0.90;;
70312;SDS011;57723;51.698;5.344;2023-02-23T09:57:57;2.17;;;1.08;;
70312;SDS011;57723;51.698;5.344;2023-02-23T10:00:26;1.90;;;0.85;;
70312;SDS011;57723;51.698;5.344;2023-02-23T10:05:33;2.28;;;1.00;;
70312;SDS011;57723;51.698;5.344;2023-02-23T10:08:04;2.70;;;0.82;;
70312;SDS011;57723;51.698;5.344;2023-02-23T10:10:43;2.20;;;0.93;;
70312;SDS011;57723;51.698;5.344;2023-02-23T10:16:06;1.35;;;0.90;;
70312;SDS011;57723;51.698;5.344;2023-02-23T10:18:46;2.22;;;1.00;;
70312;SDS011;57723;51.698;5.344;2023-02-23T10:21:15;2.65;;;0.90;;
70312;SDS011;57723;51.698;5.344;2023-02-23T10:23:44;1.45;;;1.00;;
70312;SDS011;57723;51.698;5.344;2023-02-23T10:26:15;2.10;;;1.00;;
70312;SDS011;57723;51.698;5.344;2023-02-23T10:28:41;1.60;;;0.95;;
70312;SDS011;57723;51.698;5.344;2023-02-23T10:33:48;2.90;;;1.15;;
70312;SDS011;57723;51.698;5.344;2023-02-23T10:36:18;2.25;;;1.00;;
70312;SDS011;57723;51.698;5.344;2023-02-23T10:38:50;2.25;;;1.00;;
70312;SDS011;57723;51.698;5.344;2023-02-23T10:41:17;2.38;;;1.05;;
70312;SDS011;57723;51.698;5.344;2023-02-23T10:43:43;2.50;;;1.10;;
70312;SDS011;57723;51.698;5.344;2023-02-23T10:46:10;2.70;;;1.10;;
70312;SDS011;57723;51.698;5.344;2023-02-23T10:48:41;2.95;;;1.33;;
70312;SDS011;57723;51.698;5.344;2023-02-23T10:51:12;2.63;;;1.05;;
70312;SDS011;57723;51.698;5.344;2023-02-23T10:53:38;1.48;;;0.85;;
70312;SDS011;57723;51.698;5.344;2023-02-23T10:56:05;1.90;;;1.07;;
70312;SDS011;57723;51.698;5.344;2023-02-23T10:58:38;2.78;;;1.30;;
70312;SDS011;57723;51.698;5.344;2023-02-23T11:01:04;4.10;;;1.30;;
70312;SDS011;57723;51.698;5.344;2023-02-23T11:03:47;2.22;;;1.10;;
70312;SDS011;57723;51.698;5.344;2023-02-23T11:06:26;3.05;;;1.27;;
70312;SDS011;57723;51.698;5.344;2023-02-23T11:08:52;3.67;;;1.30;;
70312;SDS011;57723;51.698;5.344;2023-02-23T11:11:22;1.77;;;0.90;;
70312;SDS011;57723;51.698;5.344;2023-02-23T11:13:53;2.72;;;1.20;;
70312;SDS011;57723;51.698;5.344;2023-02-23T11:16:22;3.63;;;1.45;;
70312;SDS011;57723;51.698;5.344;2023-02-23T11:18:52;4.05;;;1.30;;
70312;SDS011;57723;51.698;5.344;2023-02-23T11:21:37;2.80;;;1.20;;
70312;SDS011;57723;51.698;5.344;2023-02-23T11:29:01;2.10;;;1.10;;
70312;SDS011;57723;51.698;5.344;2023-02-23T11:31:30;2.50;;;1.10;;
70312;SDS011;57723;51.698;5.344;2023-02-23T11:33:57;2.33;;;1.13;;
70312;SDS011;57723;51.698;5.344;2023-02-23T11:36:27;2.58;;;1.20;;
70312;SDS011;57723;51.698;5.344;2023-02-23T11:41:44;3.10;;;1.50;;
70312;SDS011;57723;51.698;5.344;2023-02-23T11:44:20;2.72;;;1.10;;
70312;SDS011;57723;51.698;5.344;2023-02-23T11:46:46;2.70;;;1.10;;
70312;SDS011;57723;51.698;5.344;2023-02-23T11:49:23;2.80;;;1.27;;
70312;SDS011;57723;51.698;5.344;2023-02-23T11:51:53;2.38;;;1.15;;
70312;SDS011;57723;51.698;5.344;2023-02-23T11:54:24;2.87;;;1.40;;
70312;SDS011;57723;51.698;5.344;2023-02-23T11:56:51;2.88;;;1.30;;
70312;SDS011;57723;51.698;5.344;2023-02-23T11:59:42;2.53;;;1.20;;
70312;SDS011;57723;51.698;5.344;2023-02-23T12:02:15;2.25;;;1.10;;
70312;SDS011;57723;51.698;5.344;2023-02-23T12:04:43;2.97;;;1.50;;
70312;SDS011;57723;51.698;5.344;2023-02-23T12:07:26;2.13;;;1.20;;
70312;SDS011;57723;51.698;5.344;2023-02-23T12:10:00;2.53;;;1.10;;
70312;SDS011;57723;51.698;5.344;2023-02-23T12:12:27;2.72;;;1.20;;
70312;SDS011;57723;51.698;5.344;2023-02-23T12:14:55;3.80;;;1.20;;
70312;SDS011;57723;51.698;5.344;2023-02-23T12:17:33;2.35;;;1.10;;
70312;SDS011;57723;51.698;5.344;2023-02-23T12:20:04;2.20;;;1.10;;
70312;SDS011;57723;51.698;5.344;2023-02-23T12:22:36;2.88;;;1.35;;
70312;SDS011;57723;51.698;5.344;2023-02-23T12:25:05;2.17;;;1.10;;
70312;SDS011;57723;51.698;5.344;2023-02-23T12:35:22;2.35;;;1.02;;
70312;SDS011;57723;51.698;5.344;2023-02-23T12:37:50;2.63;;;1.20;;
70312;SDS011;57723;51.698;5.344;2023-02-23T12:40:27;2.38;;;1.20;;
70312;SDS011;57723;51.698;5.344;2023-02-23T12:43:13;2.80;;;1.30;;
70312;SDS011;57723;51.698;5.344;2023-02-23T12:50:49;2.90;;;1.20;;
70312;SDS011;57723;51.698;5.344;2023-02-23T12:53:19;3.95;;;1.70;;
70312;SDS011;57723;51.698;5.344;2023-02-23T13:00:59;3.93;;;1.97;;
70312;SDS011;57723;51.698;5.344;2023-02-23T13:03:33;4.75;;;1.63;;
70312;SDS011;57723;51.698;5.344;2023-02-23T13:11:29;3.42;;;1.70;;
70312;SDS011;57723;51.698;5.344;2023-02-23T13:14:00;2.08;;;1.02;;
70312;SDS011;57723;51.698;5.344;2023-02-23T13:21:36;2.40;;;1.40;;
70312;SDS011;57723;51.698;5.344;2023-02-23T13:26:38;2.37;;;1.20;;
70312;SDS011;57723;51.698;5.344;2023-02-23T13:29:16;2.22;;;1.10;;
70312;SDS011;57723;51.698;5.344;2023-02-23T13:31:49;1.55;;;1.00;;
70312;SDS011;57723;51.698;5.344;2023-02-23T13:34:24;1.67;;;1.00;;
70312;SDS011;57723;51.698;5.344;2023-02-23T13:36:50;2.15;;;1.10;;
70312;SDS011;57723;51.698;5.344;2023-02-23T13:47:19;2.22;;;1.13;;
70312;SDS011;57723;51.698;5.344;2023-02-23T13:52:31;1.77;;;1.00;;
70312;SDS011;57723;51.698;5.344;2023-02-23T13:54:58;2.50;;;1.13;;
70312;SDS011;57723;51.698;5.344;2023-02-23T13:57:28;2.28;;;1.13;;
70312;SDS011;57723;51.698;5.344;2023-02-23T13:59:54;3.58;;;1.70;;
70312;SDS011;57723;51.698;5.344;2023-02-23T14:05:17;5.43;;;2.70;;
70312;SDS011;57723;51.698;5.344;2023-02-23T14:07:45;6.55;;;3.03;;
70312;SDS011;57723;51.698;5.344;2023-02-23T14:10:24;4.72;;;2.20;;
70312;SDS011;57723;51.698;5.344;2023-02-23T14:21:04;5.47;;;2.65;;
70312;SDS011;57723;51.698;5.344;2023-02-23T14:23:47;4.75;;;2.30;;
70312;SDS011;57723;51.698;5.344;2023-02-23T14:26:34;3.50;;;1.90;;
70312;SDS011;57723;51.698;5.344;2023-02-23T14:31:57;2.60;;;1.20;;
70312;SDS011;57723;51.698;5.344;2023-02-23T14:34:40;3.47;;;1.30;;
70312;SDS011;57723;51.698;5.344;2023-02-23T14:37:25;2.85;;;1.10;;
70312;SDS011;57723;51.698;5.344;2023-02-23T14:39:53;1.73;;;1.00;;
70312;SDS011;57723;51.698;5.344;2023-02-23T14:42:24;2.67;;;1.23;;
70312;SDS011;57723;51.698;5.344;2023-02-23T14:44:53;2.03;;;0.93;;
70312;SDS011;57723;51.698;5.344;2023-02-23T14:47:20;1.95;;;1.00;;
70312;SDS011;57723;51.698;5.344;2023-02-23T14:54:43;1.85;;;1.10;;
70312;SDS011;57723;51.698;5.344;2023-02-23T14:57:23;1.88;;;1.05;;
70312;SDS011;57723;51.698;5.344;2023-02-23T15:00:05;2.20;;;1.00;;
70312;SDS011;57723;51.698;5.344;2023-02-23T15:02:34;2.00;;;1.00;;
70312;SDS011;57723;51.698;5.344;2023-02-23T15:05:12;2.08;;;1.00;;
70312;SDS011;57723;51.698;5.344;2023-02-23T15:07:38;2.25;;;1.20;;
70312;SDS011;57723;51.698;5.344;2023-02-23T15:10:28;2.30;;;1.27;;
70312;SDS011;57723;51.698;5.344;2023-02-23T15:12:55;1.33;;;0.80;;
70312;SDS011;57723;51.698;5.344;2023-02-23T15:15:24;2.27;;;1.00;;
70312;SDS011;57723;51.698;5.344;2023-02-23T15:17:57;1.25;;;0.80;;
70312;SDS011;57723;51.698;5.344;2023-02-23T15:20:26;1.70;;;0.90;;
70312;SDS011;57723;51.698;5.344;2023-02-23T15:22:53;2.15;;;1.23;;
70312;SDS011;57723;51.698;5.344;2023-02-23T15:25:32;2.13;;;1.00;;
70312;SDS011;57723;51.698;5.344;2023-02-23T15:27:57;1.75;;;1.02;;
70312;SDS011;57723;51.698;5.344;2023-02-23T15:30:30;2.60;;;1.00;;
70312;SDS011;57723;51.698;5.344;2023-02-23T15:33:03;1.77;;;0.95;;
70312;SDS011;57723;51.698;5.344;2023-02-23T15:35:28;1.77;;;0.95;;
70312;SDS011;57723;51.698;5.344;2023-02-23T15:37:55;2.30;;;0.93;;
70312;SDS011;57723;51.698;5.344;2023-02-23T15:40:22;2.03;;;1.00;;
70312;SDS011;57723;51.698;5.344;2023-02-23T15:42:50;2.30;;;0.98;;
70312;SDS011;57723;51.698;5.344;2023-02-23T15:47:54;1.92;;;0.90;;
70312;SDS011;57723;51.698;5.344;2023-02-23T15:50:21;1.52;;;0.82;;
70312;SDS011;57723;51.698;5.344;2023-02-23T15:52:51;2.13;;;1.00;;
70312;SDS011;57723;51.698;5.344;2023-02-23T15:55:25;1.55;;;0.90;;
70312;SDS011;57723;51.698;5.344;2023-02-23T15:57:52;2.05;;;0.90;;
70312;SDS011;57723;51.698;5.344;2023-02-23T16:00:19;1.88;;;1.00;;
70312;SDS011;57723;51.698;5.344;2023-02-23T16:03:01;1.77;;;0.90;;
70312;SDS011;57723;51.698;5.344;2023-02-23T16:05:34;2.30;;;1.05;;
70312;SDS011;57723;51.698;5.344;2023-02-23T16:10:29;2.03;;;0.95;;
70312;SDS011;57723;51.698;5.344;2023-02-23T16:12:55;1.50;;;0.90;;
70312;SDS011;57723;51.698;5.344;2023-02-23T16:15:23;1.40;;;0.90;;
70312;SDS011;57723;51.698;5.344;2023-02-23T16:23:24;1.35;;;0.75;;
70312;SDS011;57723;51.698;5.344;2023-02-23T16:25:53;0.80;;;0.60;;
70312;SDS011;57723;51.698;5.344;2023-02-23T16:28:29;1.53;;;0.70;;
70312;SDS011;57723;51.698;5.344;2023-02-23T16:30:56;1.38;;;0.77;;
70312;SDS011;57723;51.698;5.344;2023-02-23T16:33:26;2.20;;;1.20;;
70312;SDS011;57723;51.698;5.344;2023-02-23T16:41:20;1.83;;;0.70;;
70312;SDS011;57723;51.698;5.344;2023-02-23T16:43:46;1.42;;;0.75;;
70312;SDS011;57723;51.698;5.344;2023-02-23T16:46:13;1.45;;;0.68;;
70312;SDS011;57723;51.698;5.344;2023-02-23T16:48:39;1.25;;;0.70;;
70312;SDS011;57723;51.698;5.344;2023-02-23T16:51:07;1.67;;;0.80;;
70312;SDS011;57723;51.698;5.344;2023-02-23T16:53:33;1.40;;;0.80;;
70312;SDS011;57723;51.698;5.344;2023-02-23T16:56:01;1.13;;;0.70;;
70312;SDS011;57723;51.698;5.344;2023-02-23T16:58:36;0.90;;;0.63;;
70312;SDS011;57723;51.698;5.344;2023-02-23T17:01:02;1.88;;;0.70;;
70312;SDS011;57723;51.698;5.344;2023-02-23T17:03:28;2.27;;;0.90;;
70312;SDS011;57723;51.698;5.344;2023-02-23T17:05:54;0.80;;;0.70;;
70312;SDS011;57723;51.698;5.344;2023-02-23T17:08:19;1.77;;;0.70;;
70312;SDS011;57723;51.698;5.344;2023-02-23T17:10:47;1.20;;;0.70;;
70312;SDS011;57723;51.698;5.344;2023-02-23T17:15:41;1.65;;;1.00;;
70312;SDS011;57723;51.698;5.344;2023-02-23T17:18:14;1.50;;;0.80;;
70312;SDS011;57723;51.698;5.344;2023-02-23T17:20:40;1.40;;;0.80;;
70312;SDS011;57723;51.698;5.344;2023-02-23T17:23:05;2.30;;;1.03;;
70312;SDS011;57723;51.698;5.344;2023-02-23T17:25:33;1.57;;;0.87;;